Old Bridge, New Jersey
Current Conditions -  °F | °C
As of 4:35 PM on Saturday 22 Nov 2014 (Local Time) from KBLM Reporting Station
Broken Clouds Broken Clouds  
Wind Chill: 37°   Ceiling: 9000
Heat Index: 43°   Visibility: 10mi
Dew Point: 16°   Wind: 10mph
Humidity: 34%   Direction: 220°SW
Pressure: 30.28"   Gusts: 17mph
Location:  40.36°N, 74.34°W
Report Text: KBLM 222135Z AUTO 22009G15KT 10SM SCT060 BKN090 06/M09 A3028 RMK AO1
Loading
Personal Weather Stations






























Interactive Weather Map New forecast layout! Learn more

10-Day Weather Forecast

Advertisements
Track Severe Weather on mobile